sensor_id;sensor_type;location;lat;lon;timestamp;P1;P2;P0
56613;PMS5003;75854;35.670;139.690;2024-02-23T00:00:30;13;12;
56613;PMS5003;75854;35.670;139.690;2024-02-23T00:03:00;15;14;
56613;PMS5003;75854;35.670;139.690;2024-02-23T00:05:30;15;15;
56613;PMS5003;75854;35.670;139.690;2024-02-23T00:08:00;19;18;
56613;PMS5003;75854;35.670;139.690;2024-02-23T00:10:31;17;17;
56613;PMS5003;75854;35.670;139.690;2024-02-23T00:13:01;14;12;
56613;PMS5003;75854;35.670;139.690;2024-02-23T00:15:30;16;14;
56613;PMS5003;75854;35.670;139.690;2024-02-23T00:18:01;13;13;
56613;PMS5003;75854;35.670;139.690;2024-02-23T00:20:31;15;15;
56613;PMS5003;75854;35.670;139.690;2024-02-23T00:23:01;15;15;
56613;PMS5003;75854;35.670;139.690;2024-02-23T00:25:31;16;16;
56613;PMS5003;75854;35.670;139.690;2024-02-23T00:28:02;17;17;
56613;PMS5003;75854;35.670;139.690;2024-02-23T00:30:32;13;13;
56613;PMS5003;75854;35.670;139.690;2024-02-23T00:33:03;14;14;
56613;PMS5003;75854;35.670;139.690;2024-02-23T00:35:34;20;20;
56613;PMS5003;75854;35.670;139.690;2024-02-23T00:38:04;19;18;
56613;PMS5003;75854;35.670;139.690;2024-02-23T00:40:34;25;25;
56613;PMS5003;75854;35.670;139.690;2024-02-23T00:43:04;25;25;
56613;PMS5003;75854;35.670;139.690;2024-02-23T00:45:34;19;17;
56613;PMS5003;75854;35.670;139.690;2024-02-23T00:48:04;21;19;
56613;PMS5003;75854;35.670;139.690;2024-02-23T00:50:34;14;13;
56613;PMS5003;75854;35.670;139.690;2024-02-23T00:53:05;14;14;
56613;PMS5003;75854;35.670;139.690;2024-02-23T00:55:36;14;12;
56613;PMS5003;75854;35.670;139.690;2024-02-23T00:58:06;13;12;
56613;PMS5003;75854;35.670;139.690;2024-02-23T01:00:36;15;15;
56613;PMS5003;75854;35.670;139.690;2024-02-23T01:03:06;19;18;
56613;PMS5003;75854;35.670;139.690;2024-02-23T01:05:36;15;14;
56613;PMS5003;75854;35.670;139.690;2024-02-23T01:08:07;13;13;
56613;PMS5003;75854;35.670;139.690;2024-02-23T01:10:37;16;16;
56613;PMS5003;75854;35.670;139.690;2024-02-23T01:13:07;14;12;
56613;PMS5003;75854;35.670;139.690;2024-02-23T01:15:37;17;17;
56613;PMS5003;75854;35.670;139.690;2024-02-23T01:18:12;14;14;
56613;PMS5003;75854;35.670;139.690;2024-02-23T01:20:43;18;18;
56613;PMS5003;75854;35.670;139.690;2024-02-23T01:23:13;13;12;
56613;PMS5003;75854;35.670;139.690;2024-02-23T01:25:43;13;13;
56613;PMS5003;75854;35.670;139.690;2024-02-23T01:28:14;16;13;
56613;PMS5003;75854;35.670;139.690;2024-02-23T01:30:45;14;13;
56613;PMS5003;75854;35.670;139.690;2024-02-23T01:33:15;14;13;
56613;PMS5003;75854;35.670;139.690;2024-02-23T01:35:45;15;14;
56613;PMS5003;75854;35.670;139.690;2024-02-23T01:38:15;14;14;
56613;PMS5003;75854;35.670;139.690;2024-02-23T01:40:45;14;12;
56613;PMS5003;75854;35.670;139.690;2024-02-23T01:43:15;15;15;
56613;PMS5003;75854;35.670;139.690;2024-02-23T01:45:46;15;14;
56613;PMS5003;75854;35.670;139.690;2024-02-23T01:48:16;12;11;
56613;PMS5003;75854;35.670;139.690;2024-02-23T01:50:47;9;9;
56613;PMS5003;75854;35.670;139.690;2024-02-23T01:53:17;16;15;
56613;PMS5003;75854;35.670;139.690;2024-02-23T01:55:48;18;18;
56613;PMS5003;75854;35.670;139.690;2024-02-23T01:58:19;16;16;
56613;PMS5003;75854;35.670;139.690;2024-02-23T02:00:49;14;14;
56613;PMS5003;75854;35.670;139.690;2024-02-23T02:03:19;14;14;
56613;PMS5003;75854;35.670;139.690;2024-02-23T02:05:49;14;13;
56613;PMS5003;75854;35.670;139.690;2024-02-23T02:08:20;14;14;
56613;PMS5003;75854;35.670;139.690;2024-02-23T02:10:51;13;13;
56613;PMS5003;75854;35.670;139.690;2024-02-23T02:13:21;17;15;
56613;PMS5003;75854;35.670;139.690;2024-02-23T02:15:51;21;19;
56613;PMS5003;75854;35.670;139.690;2024-02-23T02:18:21;16;16;
56613;PMS5003;75854;35.670;139.690;2024-02-23T02:20:53;20;18;
56613;PMS5003;75854;35.670;139.690;2024-02-23T02:23:24;19;19;
56613;PMS5003;75854;35.670;139.690;2024-02-23T02:25:54;16;12;
56613;PMS5003;75854;35.670;139.690;2024-02-23T02:28:25;16;14;
56613;PMS5003;75854;35.670;139.690;2024-02-23T02:30:55;15;15;
56613;PMS5003;75854;35.670;139.690;2024-02-23T02:33:26;13;11;
56613;PMS5003;75854;35.670;139.690;2024-02-23T02:35:56;19;19;
56613;PMS5003;75854;35.670;139.690;2024-02-23T02:38:26;16;15;
56613;PMS5003;75854;35.670;139.690;2024-02-23T02:40:56;16;16;
56613;PMS5003;75854;35.670;139.690;2024-02-23T02:43:26;17;17;
56613;PMS5003;75854;35.670;139.690;2024-02-23T02:45:56;19;19;
56613;PMS5003;75854;35.670;139.690;2024-02-23T02:48:27;22;22;
56613;PMS5003;75854;35.670;139.690;2024-02-23T02:50:56;16;16;
56613;PMS5003;75854;35.670;139.690;2024-02-23T02:53:26;17;17;
56613;PMS5003;75854;35.670;139.690;2024-02-23T02:55:56;19;18;
56613;PMS5003;75854;35.670;139.690;2024-02-23T02:58:27;21;19;
56613;PMS5003;75854;35.670;139.690;2024-02-23T03:00:57;15;15;
56613;PMS5003;75854;35.670;139.690;2024-02-23T03:03:26;13;13;
56613;PMS5003;75854;35.670;139.690;2024-02-23T03:05:56;17;16;
56613;PMS5003;75854;35.670;139.690;2024-02-23T03:08:27;14;14;
56613;PMS5003;75854;35.670;139.690;2024-02-23T03:10:57;14;14;
56613;PMS5003;75854;35.670;139.690;2024-02-23T03:13:27;15;15;
56613;PMS5003;75854;35.670;139.690;2024-02-23T03:15:57;17;16;
56613;PMS5003;75854;35.670;139.690;2024-02-23T03:18:27;16;14;
56613;PMS5003;75854;35.670;139.690;2024-02-23T03:20:57;16;16;
56613;PMS5003;75854;35.670;139.690;2024-02-23T03:23:27;18;15;
56613;PMS5003;75854;35.670;139.690;2024-02-23T03:25:57;18;16;
56613;PMS5003;75854;35.670;139.690;2024-02-23T03:28:27;16;14;
56613;PMS5003;75854;35.670;139.690;2024-02-23T03:30:58;14;14;
56613;PMS5003;75854;35.670;139.690;2024-02-23T03:33:29;17;16;
56613;PMS5003;75854;35.670;139.690;2024-02-23T03:35:59;14;14;
56613;PMS5003;75854;35.670;139.690;2024-02-23T03:38:29;16;16;
56613;PMS5003;75854;35.670;139.690;2024-02-23T03:40:59;15;14;
56613;PMS5003;75854;35.670;139.690;2024-02-23T03:43:29;15;14;
56613;PMS5003;75854;35.670;139.690;2024-02-23T03:45:59;17;16;
56613;PMS5003;75854;35.670;139.690;2024-02-23T03:48:29;15;15;
56613;PMS5003;75854;35.670;139.690;2024-02-23T03:50:59;14;14;
56613;PMS5003;75854;35.670;139.690;2024-02-23T03:53:31;22;21;
56613;PMS5003;75854;35.670;139.690;2024-02-23T03:56:01;19;16;
56613;PMS5003;75854;35.670;139.690;2024-02-23T03:58:31;17;16;
56613;PMS5003;75854;35.670;139.690;2024-02-23T04:01:01;18;16;
56613;PMS5003;75854;35.670;139.690;2024-02-23T04:03:31;18;16;
56613;PMS5003;75854;35.670;139.690;2024-02-23T04:06:01;14;14;
56613;PMS5003;75854;35.670;139.690;2024-02-23T04:08:32;17;17;
56613;PMS5003;75854;35.670;139.690;2024-02-23T04:11:02;17;13;
56613;PMS5003;75854;35.670;139.690;2024-02-23T04:13:32;18;16;
56613;PMS5003;75854;35.670;139.690;2024-02-23T04:16:02;15;13;
56613;PMS5003;75854;35.670;139.690;2024-02-23T04:18:32;15;13;
56613;PMS5003;75854;35.670;139.690;2024-02-23T04:21:03;13;13;
56613;PMS5003;75854;35.670;139.690;2024-02-23T04:23:33;17;17;
56613;PMS5003;75854;35.670;139.690;2024-02-23T04:26:03;15;15;
56613;PMS5003;75854;35.670;139.690;2024-02-23T04:28:34;13;13;
56613;PMS5003;75854;35.670;139.690;2024-02-23T04:31:08;19;17;
56613;PMS5003;75854;35.670;139.690;2024-02-23T04:33:39;15;15;
56613;PMS5003;75854;35.670;139.690;2024-02-23T04:36:09;17;17;
56613;PMS5003;75854;35.670;139.690;2024-02-23T04:38:39;16;15;
56613;PMS5003;75854;35.670;139.690;2024-02-23T04:41:08;13;13;
56613;PMS5003;75854;35.670;139.690;2024-02-23T04:43:38;14;13;
56613;PMS5003;75854;35.670;139.690;2024-02-23T04:46:09;19;19;
56613;PMS5003;75854;35.670;139.690;2024-02-23T04:48:39;15;15;
56613;PMS5003;75854;35.670;139.690;2024-02-23T04:51:09;13;12;
56613;PMS5003;75854;35.670;139.690;2024-02-23T04:53:39;18;18;
56613;PMS5003;75854;35.670;139.690;2024-02-23T04:56:09;15;14;
56613;PMS5003;75854;35.670;139.690;2024-02-23T04:58:39;13;13;
56613;PMS5003;75854;35.670;139.690;2024-02-23T05:01:09;16;14;
56613;PMS5003;75854;35.670;139.690;2024-02-23T05:03:39;13;13;
56613;PMS5003;75854;35.670;139.690;2024-02-23T05:06:09;14;14;
56613;PMS5003;75854;35.670;139.690;2024-02-23T05:08:40;18;18;
56613;PMS5003;75854;35.670;139.690;2024-02-23T05:11:10;18;16;
56613;PMS5003;75854;35.670;139.690;2024-02-23T05:13:42;18;18;
56613;PMS5003;75854;35.670;139.690;2024-02-23T05:16:13;16;16;
56613;PMS5003;75854;35.670;139.690;2024-02-23T05:18:43;20;20;
56613;PMS5003;75854;35.670;139.690;2024-02-23T05:21:14;21;19;
56613;PMS5003;75854;35.670;139.690;2024-02-23T05:23:44;18;15;
56613;PMS5003;75854;35.670;139.690;2024-02-23T05:26:15;17;15;
56613;PMS5003;75854;35.670;139.690;2024-02-23T05:28:45;24;21;
56613;PMS5003;75854;35.670;139.690;2024-02-23T05:31:14;14;14;
56613;PMS5003;75854;35.670;139.690;2024-02-23T05:33:45;17;16;
56613;PMS5003;75854;35.670;139.690;2024-02-23T05:36:16;19;18;
56613;PMS5003;75854;35.670;139.690;2024-02-23T05:38:47;15;15;
56613;PMS5003;75854;35.670;139.690;2024-02-23T05:41:16;15;13;
56613;PMS5003;75854;35.670;139.690;2024-02-23T05:43:47;19;19;
56613;PMS5003;75854;35.670;139.690;2024-02-23T05:46:16;19;19;
56613;PMS5003;75854;35.670;139.690;2024-02-23T05:48:46;17;17;
56613;PMS5003;75854;35.670;139.690;2024-02-23T05:51:17;17;17;
56613;PMS5003;75854;35.670;139.690;2024-02-23T05:53:46;21;20;
56613;PMS5003;75854;35.670;139.690;2024-02-23T05:56:16;19;18;
56613;PMS5003;75854;35.670;139.690;2024-02-23T05:58:46;16;16;
56613;PMS5003;75854;35.670;139.690;2024-02-23T06:01:16;17;17;
56613;PMS5003;75854;35.670;139.690;2024-02-23T06:03:46;16;16;
56613;PMS5003;75854;35.670;139.690;2024-02-23T06:06:17;14;14;
56613;PMS5003;75854;35.670;139.690;2024-02-23T06:08:46;15;15;
56613;PMS5003;75854;35.670;139.690;2024-02-23T06:11:16;18;17;
56613;PMS5003;75854;35.670;139.690;2024-02-23T06:13:45;18;16;
56613;PMS5003;75854;35.670;139.690;2024-02-23T06:16:15;21;19;
56613;PMS5003;75854;35.670;139.690;2024-02-23T06:18:46;17;17;
56613;PMS5003;75854;35.670;139.690;2024-02-23T06:21:16;15;15;
56613;PMS5003;75854;35.670;139.690;2024-02-23T06:23:46;15;15;
56613;PMS5003;75854;35.670;139.690;2024-02-23T06:26:16;13;13;
56613;PMS5003;75854;35.670;139.690;2024-02-23T06:28:46;14;14;
56613;PMS5003;75854;35.670;139.690;2024-02-23T06:31:17;10;10;
56613;PMS5003;75854;35.670;139.690;2024-02-23T06:33:46;13;13;
56613;PMS5003;75854;35.670;139.690;2024-02-23T06:36:17;16;15;
56613;PMS5003;75854;35.670;139.690;2024-02-23T06:38:47;13;13;
56613;PMS5003;75854;35.670;139.690;2024-02-23T06:41:17;14;11;
56613;PMS5003;75854;35.670;139.690;2024-02-23T06:43:48;15;14;
56613;PMS5003;75854;35.670;139.690;2024-02-23T06:46:18;14;14;
56613;PMS5003;75854;35.670;139.690;2024-02-23T06:48:48;10;10;
56613;PMS5003;75854;35.670;139.690;2024-02-23T06:51:18;14;13;
56613;PMS5003;75854;35.670;139.690;2024-02-23T06:53:48;15;14;
56613;PMS5003;75854;35.670;139.690;2024-02-23T06:56:18;14;14;
56613;PMS5003;75854;35.670;139.690;2024-02-23T06:58:49;13;13;
56613;PMS5003;75854;35.670;139.690;2024-02-23T07:01:20;13;12;
56613;PMS5003;75854;35.670;139.690;2024-02-23T07:03:50;14;13;
56613;PMS5003;75854;35.670;139.690;2024-02-23T07:06:20;14;14;
56613;PMS5003;75854;35.670;139.690;2024-02-23T07:08:50;14;14;
56613;PMS5003;75854;35.670;139.690;2024-02-23T07:11:20;14;14;
56613;PMS5003;75854;35.670;139.690;2024-02-23T07:13:50;17;16;
56613;PMS5003;75854;35.670;139.690;2024-02-23T07:16:20;19;18;
56613;PMS5003;75854;35.670;139.690;2024-02-23T07:18:49;15;14;
56613;PMS5003;75854;35.670;139.690;2024-02-23T07:21:19;12;12;
56613;PMS5003;75854;35.670;139.690;2024-02-23T07:23:49;17;17;
56613;PMS5003;75854;35.670;139.690;2024-02-23T07:26:19;15;13;
56613;PMS5003;75854;35.670;139.690;2024-02-23T07:28:49;12;12;
56613;PMS5003;75854;35.670;139.690;2024-02-23T07:31:19;16;16;
56613;PMS5003;75854;35.670;139.690;2024-02-23T07:33:48;17;17;
56613;PMS5003;75854;35.670;139.690;2024-02-23T07:36:18;15;14;
56613;PMS5003;75854;35.670;139.690;2024-02-23T07:38:48;15;15;
56613;PMS5003;75854;35.670;139.690;2024-02-23T07:41:18;17;17;
56613;PMS5003;75854;35.670;139.690;2024-02-23T07:43:49;17;15;
56613;PMS5003;75854;35.670;139.690;2024-02-23T07:46:19;14;14;
56613;PMS5003;75854;35.670;139.690;2024-02-23T07:48:49;16;15;
56613;PMS5003;75854;35.670;139.690;2024-02-23T07:51:19;14;14;
56613;PMS5003;75854;35.670;139.690;2024-02-23T07:53:49;18;17;
56613;PMS5003;75854;35.670;139.690;2024-02-23T07:56:19;17;15;
56613;PMS5003;75854;35.670;139.690;2024-02-23T07:58:49;17;16;
56613;PMS5003;75854;35.670;139.690;2024-02-23T08:01:19;17;16;
56613;PMS5003;75854;35.670;139.690;2024-02-23T08:03:50;22;22;
56613;PMS5003;75854;35.670;139.690;2024-02-23T08:06:19;16;16;
56613;PMS5003;75854;35.670;139.690;2024-02-23T08:08:49;22;20;
56613;PMS5003;75854;35.670;139.690;2024-02-23T08:11:19;18;18;
56613;PMS5003;75854;35.670;139.690;2024-02-23T08:13:49;17;17;
56613;PMS5003;75854;35.670;139.690;2024-02-23T08:16:19;20;20;
56613;PMS5003;75854;35.670;139.690;2024-02-23T08:18:49;21;21;
56613;PMS5003;75854;35.670;139.690;2024-02-23T08:21:18;16;16;
56613;PMS5003;75854;35.670;139.690;2024-02-23T08:23:48;18;18;
56613;PMS5003;75854;35.670;139.690;2024-02-23T08:26:18;17;17;
56613;PMS5003;75854;35.670;139.690;2024-02-23T08:28:49;16;13;
56613;PMS5003;75854;35.670;139.690;2024-02-23T08:31:18;20;19;
56613;PMS5003;75854;35.670;139.690;2024-02-23T08:33:48;20;19;
56613;PMS5003;75854;35.670;139.690;2024-02-23T08:36:23;20;20;
56613;PMS5003;75854;35.670;139.690;2024-02-23T08:38:52;20;20;
56613;PMS5003;75854;35.670;139.690;2024-02-23T08:41:22;25;20;
56613;PMS5003;75854;35.670;139.690;2024-02-23T08:43:52;22;22;
56613;PMS5003;75854;35.670;139.690;2024-02-23T08:46:22;24;22;
56613;PMS5003;75854;35.670;139.690;2024-02-23T08:48:52;21;20;
56613;PMS5003;75854;35.670;139.690;2024-02-23T08:51:22;27;25;
56613;PMS5003;75854;35.670;139.690;2024-02-23T08:53:52;22;21;
56613;PMS5003;75854;35.670;139.690;2024-02-23T08:56:23;22;22;
56613;PMS5003;75854;35.670;139.690;2024-02-23T08:58:53;22;22;
56613;PMS5003;75854;35.670;139.690;2024-02-23T09:01:23;22;20;
56613;PMS5003;75854;35.670;139.690;2024-02-23T09:03:54;19;19;
56613;PMS5003;75854;35.670;139.690;2024-02-23T09:06:25;21;21;
56613;PMS5003;75854;35.670;139.690;2024-02-23T09:08:54;19;19;
56613;PMS5003;75854;35.670;139.690;2024-02-23T09:11:25;20;20;
56613;PMS5003;75854;35.670;139.690;2024-02-23T09:13:55;23;20;
56613;PMS5003;75854;35.670;139.690;2024-02-23T09:16:25;22;20;
56613;PMS5003;75854;35.670;139.690;2024-02-23T09:18:55;24;23;
56613;PMS5003;75854;35.670;139.690;2024-02-23T09:21:24;23;20;
56613;PMS5003;75854;35.670;139.690;2024-02-23T09:23:54;19;19;
56613;PMS5003;75854;35.670;139.690;2024-02-23T09:26:25;21;21;
56613;PMS5003;75854;35.670;139.690;2024-02-23T09:28:55;22;22;
56613;PMS5003;75854;35.670;139.690;2024-02-23T09:31:25;22;20;
56613;PMS5003;75854;35.670;139.690;2024-02-23T09:33:55;20;19;
56613;PMS5003;75854;35.670;139.690;2024-02-23T09:36:25;19;16;
56613;PMS5003;75854;35.670;139.690;2024-02-23T09:38:55;20;20;
56613;PMS5003;75854;35.670;139.690;2024-02-23T09:41:25;19;18;
56613;PMS5003;75854;35.670;139.690;2024-02-23T09:43:55;17;16;
56613;PMS5003;75854;35.670;139.690;2024-02-23T09:46:30;19;19;
56613;PMS5003;75854;35.670;139.690;2024-02-23T09:49:00;16;16;
56613;PMS5003;75854;35.670;139.690;2024-02-23T09:51:30;19;19;
56613;PMS5003;75854;35.670;139.690;2024-02-23T09:54:03;20;20;
56613;PMS5003;75854;35.670;139.690;2024-02-23T09:56:33;19;19;
56613;PMS5003;75854;35.670;139.690;2024-02-23T09:59:03;24;24;
56613;PMS5003;75854;35.670;139.690;2024-02-23T10:01:33;23;21;
56613;PMS5003;75854;35.670;139.690;2024-02-23T10:04:03;20;17;
56613;PMS5003;75854;35.670;139.690;2024-02-23T10:06:34;22;18;
56613;PMS5003;75854;35.670;139.690;2024-02-23T10:09:04;20;20;
56613;PMS5003;75854;35.670;139.690;2024-02-23T10:11:33;14;13;
56613;PMS5003;75854;35.670;139.690;2024-02-23T10:14:07;16;13;
56613;PMS5003;75854;35.670;139.690;2024-02-23T10:16:39;13;13;
56613;PMS5003;75854;35.670;139.690;2024-02-23T10:19:09;13;13;
56613;PMS5003;75854;35.670;139.690;2024-02-23T10:21:38;15;13;
56613;PMS5003;75854;35.670;139.690;2024-02-23T10:24:08;11;11;
56613;PMS5003;75854;35.670;139.690;2024-02-23T10:26:39;16;16;
56613;PMS5003;75854;35.670;139.690;2024-02-23T10:29:09;14;13;
56613;PMS5003;75854;35.670;139.690;2024-02-23T10:31:40;10;10;
56613;PMS5003;75854;35.670;139.690;2024-02-23T10:34:12;15;13;
56613;PMS5003;75854;35.670;139.690;2024-02-23T10:36:43;11;9;
56613;PMS5003;75854;35.670;139.690;2024-02-23T10:39:15;13;11;
56613;PMS5003;75854;35.670;139.690;2024-02-23T10:41:47;14;12;
56613;PMS5003;75854;35.670;139.690;2024-02-23T10:44:24;12;11;
56613;PMS5003;75854;35.670;139.690;2024-02-23T10:46:56;13;13;
56613;PMS5003;75854;35.670;139.690;2024-02-23T10:49:28;14;12;
56613;PMS5003;75854;35.670;139.690;2024-02-23T10:52:00;10;10;
56613;PMS5003;75854;35.670;139.690;2024-02-23T10:54:32;13;11;
56613;PMS5003;75854;35.670;139.690;2024-02-23T10:57:03;14;13;
56613;PMS5003;75854;35.670;139.690;2024-02-23T10:59:34;14;14;
56613;PMS5003;75854;35.670;139.690;2024-02-23T11:02:04;9;9;
56613;PMS5003;75854;35.670;139.690;2024-02-23T11:04:35;12;8;
56613;PMS5003;75854;35.670;139.690;2024-02-23T11:07:13;12;12;
56613;PMS5003;75854;35.670;139.690;2024-02-23T11:09:51;13;12;
56613;PMS5003;75854;35.670;139.690;2024-02-23T11:12:23;9;9;
56613;PMS5003;75854;35.670;139.690;2024-02-23T11:14:57;9;9;
56613;PMS5003;75854;35.670;139.690;2024-02-23T11:17:29;11;11;
56613;PMS5003;75854;35.670;139.690;2024-02-23T11:20:02;10;10;
56613;PMS5003;75854;35.670;139.690;2024-02-23T11:22:32;8;8;
56613;PMS5003;75854;35.670;139.690;2024-02-23T11:25:03;11;11;
56613;PMS5003;75854;35.670;139.690;2024-02-23T11:27:35;9;9;
56613;PMS5003;75854;35.670;139.690;2024-02-23T11:30:06;12;11;
56613;PMS5003;75854;35.670;139.690;2024-02-23T11:32:37;14;11;
56613;PMS5003;75854;35.670;139.690;2024-02-23T11:35:10;14;12;
56613;PMS5003;75854;35.670;139.690;2024-02-23T11:37:45;9;9;
56613;PMS5003;75854;35.670;139.690;2024-02-23T11:40:17;11;10;
56613;PMS5003;75854;35.670;139.690;2024-02-23T11:42:47;11;10;
56613;PMS5003;75854;35.670;139.690;2024-02-23T11:45:18;8;7;
56613;PMS5003;75854;35.670;139.690;2024-02-23T11:47:48;10;10;
56613;PMS5003;75854;35.670;139.690;2024-02-23T11:50:17;11;11;
56613;PMS5003;75854;35.670;139.690;2024-02-23T11:52:47;12;11;
56613;PMS5003;75854;35.670;139.690;2024-02-23T11:55:18;11;9;
56613;PMS5003;75854;35.670;139.690;2024-02-23T11:57:48;9;9;
56613;PMS5003;75854;35.670;139.690;2024-02-23T12:00:19;10;10;
56613;PMS5003;75854;35.670;139.690;2024-02-23T12:02:51;10;10;
56613;PMS5003;75854;35.670;139.690;2024-02-23T12:05:20;10;7;
56613;PMS5003;75854;35.670;139.690;2024-02-23T12:07:51;9;9;
56613;PMS5003;75854;35.670;139.690;2024-02-23T12:10:22;12;12;
56613;PMS5003;75854;35.670;139.690;2024-02-23T12:12:51;12;10;
56613;PMS5003;75854;35.670;139.690;2024-02-23T12:15:21;11;11;
56613;PMS5003;75854;35.670;139.690;2024-02-23T12:17:52;9;9;
56613;PMS5003;75854;35.670;139.690;2024-02-23T12:20:22;12;11;
56613;PMS5003;75854;35.670;139.690;2024-02-23T12:22:55;9;9;
56613;PMS5003;75854;35.670;139.690;2024-02-23T12:25:24;10;10;
56613;PMS5003;75854;35.670;139.690;2024-02-23T12:27:54;9;8;
56613;PMS5003;75854;35.670;139.690;2024-02-23T12:30:24;6;6;
56613;PMS5003;75854;35.670;139.690;2024-02-23T12:33:03;9;9;
56613;PMS5003;75854;35.670;139.690;2024-02-23T12:35:32;8;8;
56613;PMS5003;75854;35.670;139.690;2024-02-23T12:38:03;13;10;
56613;PMS5003;75854;35.670;139.690;2024-02-23T12:40:34;9;7;
56613;PMS5003;75854;35.670;139.690;2024-02-23T12:43:03;11;11;
56613;PMS5003;75854;35.670;139.690;2024-02-23T12:45:34;10;10;
56613;PMS5003;75854;35.670;139.690;2024-02-23T12:48:03;12;10;
56613;PMS5003;75854;35.670;139.690;2024-02-23T12:50:34;10;7;
56613;PMS5003;75854;35.670;139.690;2024-02-23T12:53:04;10;10;
56613;PMS5003;75854;35.670;139.690;2024-02-23T12:55:34;9;9;
56613;PMS5003;75854;35.670;139.690;2024-02-23T12:58:04;11;11;
56613;PMS5003;75854;35.670;139.690;2024-02-23T13:00:34;10;10;
56613;PMS5003;75854;35.670;139.690;2024-02-23T13:03:04;8;8;
56613;PMS5003;75854;35.670;139.690;2024-02-23T13:05:33;8;7;
56613;PMS5003;75854;35.670;139.690;2024-02-23T13:08:03;9;9;
56613;PMS5003;75854;35.670;139.690;2024-02-23T13:10:34;9;9;
56613;PMS5003;75854;35.670;139.690;2024-02-23T13:13:04;11;10;
56613;PMS5003;75854;35.670;139.690;2024-02-23T13:15:34;8;8;
56613;PMS5003;75854;35.670;139.690;2024-02-23T13:18:04;11;8;
56613;PMS5003;75854;35.670;139.690;2024-02-23T13:20:35;10;10;
56613;PMS5003;75854;35.670;139.690;2024-02-23T13:23:06;9;9;
56613;PMS5003;75854;35.670;139.690;2024-02-23T13:25:36;10;10;
56613;PMS5003;75854;35.670;139.690;2024-02-23T13:28:07;11;11;
56613;PMS5003;75854;35.670;139.690;2024-02-23T13:30:37;8;7;
56613;PMS5003;75854;35.670;139.690;2024-02-23T13:33:07;8;8;
56613;PMS5003;75854;35.670;139.690;2024-02-23T13:35:39;5;5;
56613;PMS5003;75854;35.670;139.690;2024-02-23T13:38:10;10;10;
56613;PMS5003;75854;35.670;139.690;2024-02-23T13:40:40;9;9;
56613;PMS5003;75854;35.670;139.690;2024-02-23T13:43:09;11;11;
56613;PMS5003;75854;35.670;139.690;2024-02-23T13:45:48;5;5;
56613;PMS5003;75854;35.670;139.690;2024-02-23T13:48:18;8;8;
56613;PMS5003;75854;35.670;139.690;2024-02-23T13:50:49;8;8;
56613;PMS5003;75854;35.670;139.690;2024-02-23T13:53:19;8;8;
56613;PMS5003;75854;35.670;139.690;2024-02-23T13:55:48;7;7;
56613;PMS5003;75854;35.670;139.690;2024-02-23T13:58:18;12;10;
56613;PMS5003;75854;35.670;139.690;2024-02-23T14:00:49;10;9;
56613;PMS5003;75854;35.670;139.690;2024-02-23T14:03:19;11;10;
56613;PMS5003;75854;35.670;139.690;2024-02-23T14:05:49;12;12;
56613;PMS5003;75854;35.670;139.690;2024-02-23T14:08:19;10;10;
56613;PMS5003;75854;35.670;139.690;2024-02-23T14:10:49;11;11;
56613;PMS5003;75854;35.670;139.690;2024-02-23T14:13:19;10;10;
56613;PMS5003;75854;35.670;139.690;2024-02-23T14:15:49;11;10;
56613;PMS5003;75854;35.670;139.690;2024-02-23T14:18:19;13;8;
56613;PMS5003;75854;35.670;139.690;2024-02-23T14:20:50;11;10;
56613;PMS5003;75854;35.670;139.690;2024-02-23T14:23:20;10;10;
56613;PMS5003;75854;35.670;139.690;2024-02-23T14:25:50;11;11;
56613;PMS5003;75854;35.670;139.690;2024-02-23T14:28:21;12;12;
56613;PMS5003;75854;35.670;139.690;2024-02-23T14:30:51;8;8;
56613;PMS5003;75854;35.670;139.690;2024-02-23T14:33:20;11;9;
56613;PMS5003;75854;35.670;139.690;2024-02-23T14:35:50;9;9;
56613;PMS5003;75854;35.670;139.690;2024-02-23T14:38:20;11;10;
56613;PMS5003;75854;35.670;139.690;2024-02-23T14:40:51;9;9;
56613;PMS5003;75854;35.670;139.690;2024-02-23T14:43:26;9;9;
56613;PMS5003;75854;35.670;139.690;2024-02-23T14:45:55;9;9;
56613;PMS5003;75854;35.670;139.690;2024-02-23T14:48:25;7;7;
56613;PMS5003;75854;35.670;139.690;2024-02-23T14:50:56;7;7;
56613;PMS5003;75854;35.670;139.690;2024-02-23T14:53:26;12;12;
56613;PMS5003;75854;35.670;139.690;2024-02-23T14:55:56;13;11;
56613;PMS5003;75854;35.670;139.690;2024-02-23T14:58:26;13;10;
56613;PMS5003;75854;35.670;139.690;2024-02-23T15:00:56;13;10;
56613;PMS5003;75854;35.670;139.690;2024-02-23T15:03:26;11;11;
56613;PMS5003;75854;35.670;139.690;2024-02-23T15:05:56;9;9;
56613;PMS5003;75854;35.670;139.690;2024-02-23T15:08:26;11;8;
56613;PMS5003;75854;35.670;139.690;2024-02-23T15:10:57;10;9;
56613;PMS5003;75854;35.670;139.690;2024-02-23T15:13:27;9;8;
56613;PMS5003;75854;35.670;139.690;2024-02-23T15:15:56;11;11;
56613;PMS5003;75854;35.670;139.690;2024-02-23T15:18:26;9;8;
56613;PMS5003;75854;35.670;139.690;2024-02-23T15:21:01;10;9;
56613;PMS5003;75854;35.670;139.690;2024-02-23T15:23:31;9;9;
56613;PMS5003;75854;35.670;139.690;2024-02-23T15:26:01;8;8;
56613;PMS5003;75854;35.670;139.690;2024-02-23T15:28:30;11;11;
56613;PMS5003;75854;35.670;139.690;2024-02-23T15:31:01;12;12;
56613;PMS5003;75854;35.670;139.690;2024-02-23T15:33:31;12;11;
56613;PMS5003;75854;35.670;139.690;2024-02-23T15:36:01;10;10;
56613;PMS5003;75854;35.670;139.690;2024-02-23T15:38:32;15;10;
56613;PMS5003;75854;35.670;139.690;2024-02-23T15:41:02;14;12;
56613;PMS5003;75854;35.670;139.690;2024-02-23T15:43:33;14;10;
56613;PMS5003;75854;35.670;139.690;2024-02-23T15:46:03;10;10;
56613;PMS5003;75854;35.670;139.690;2024-02-23T15:48:33;12;10;
56613;PMS5003;75854;35.670;139.690;2024-02-23T15:51:03;12;12;
56613;PMS5003;75854;35.670;139.690;2024-02-23T15:53:34;10;9;
56613;PMS5003;75854;35.670;139.690;2024-02-23T15:56:04;15;13;
56613;PMS5003;75854;35.670;139.690;2024-02-23T15:58:34;9;9;
56613;PMS5003;75854;35.670;139.690;2024-02-23T16:05:55;9;9;
